createdAt,value
2022-11-30T00:11:50.164Z,8
2022-11-30T00:26:19.202Z,8
2022-11-30T00:40:49.839Z,7.9
2022-11-30T00:55:20.775Z,7.9
2022-11-30T01:09:53.677Z,7.9
2022-11-30T01:24:22.504Z,8
2022-11-30T01:38:52.754Z,8
2022-11-30T01:53:23.356Z,7.9
2022-11-30T02:07:54.492Z,8
2022-11-30T02:22:31.559Z,8.1
2022-11-30T02:37:03.721Z,8.1
2022-11-30T02:51:31.051Z,8.1
2022-11-30T03:05:59.442Z,7.9
2022-11-30T03:20:30.677Z,7.9
2022-11-30T03:35:01.426Z,7.7
2022-11-30T03:49:32.134Z,7.7
2022-11-30T04:04:03.936Z,7.8
2022-11-30T04:18:35.058Z,7.8
2022-11-30T04:33:06.462Z,7.6
2022-11-30T04:47:37.463Z,7.7
2022-11-30T05:02:07.944Z,7.7
2022-11-30T05:16:39.015Z,7.7
2022-11-30T05:31:09.875Z,7.7
2022-11-30T05:45:41.357Z,7.8
2022-11-30T06:00:12.525Z,7.9
2022-11-30T06:14:41.282Z,7.7
2022-11-30T06:29:12.178Z,7.7
2022-11-30T06:43:43.080Z,7.5
2022-11-30T06:58:14.382Z,7.6
2022-11-30T07:12:45.343Z,7.8
2022-11-30T07:27:16.402Z,7.9
2022-11-30T07:41:46.531Z,7.4
2022-11-30T07:56:17.227Z,7.6
2022-11-30T08:10:47.981Z,7.4
2022-11-30T08:25:18.887Z,7.4
2022-11-30T08:39:54.321Z,7.3
2022-11-30T08:54:27.142Z,7.3
2022-11-30T09:09:01.090Z,7.5
2022-11-30T09:23:32.310Z,7.6
2022-11-30T09:37:58.944Z,7.3
2022-11-30T09:52:27.278Z,7.5
2022-11-30T10:06:57.652Z,7.7
2022-11-30T10:21:28.942Z,7.6
2022-11-30T10:36:06.339Z,7.7
2022-11-30T10:50:38.496Z,7.7
2022-11-30T11:05:06.308Z,7.5
2022-11-30T11:19:35.747Z,7.4
2022-11-30T11:34:06.520Z,7.7
2022-11-30T11:48:36.844Z,8
2022-11-30T12:03:07.596Z,8.1
2022-11-30T12:17:39.168Z,8.2
2022-11-30T12:32:14.819Z,8.4
2022-11-30T12:46:47.609Z,8.3
2022-11-30T13:01:12.255Z,8.1
2022-11-30T13:15:48.805Z,8
2022-11-30T13:30:22.192Z,7.9
2022-11-30T13:44:48.210Z,8
2022-11-30T13:59:19.490Z,8.1
2022-11-30T14:13:50.287Z,7.9
2022-11-30T14:28:21.078Z,7.8
2022-11-30T14:42:52.564Z,7.8
2022-11-30T14:57:23.298Z,7.9
2022-11-30T15:11:50.718Z,7.8
2022-11-30T15:26:21.778Z,7.7
2022-11-30T15:40:54.490Z,7.8
2022-11-30T15:55:27.072Z,7.7
2022-11-30T16:09:57.723Z,7.5
2022-11-30T16:24:28.344Z,7.6
2022-11-30T16:39:00.073Z,7.7
2022-11-30T16:53:30.926Z,7.7
2022-11-30T17:08:02.937Z,7.6
2022-11-30T17:22:33.206Z,7.4
2022-11-30T17:37:03.134Z,7.2
2022-11-30T17:51:31.833Z,7.2
2022-11-30T18:06:03.696Z,7.4
2022-11-30T18:20:34.676Z,7.4
2022-11-30T18:35:02.794Z,7.3
2022-11-30T18:49:34.145Z,7.4
2022-11-30T19:04:04.675Z,7.3
2022-11-30T19:18:35.394Z,7.3
2022-11-30T19:33:04.298Z,7.3
2022-11-30T19:47:35.080Z,7.3
2022-11-30T20:02:06.281Z,7.4
2022-11-30T20:16:36.044Z,7.4
2022-11-30T20:31:12.808Z,7.3
2022-11-30T20:45:52.774Z,7.2
2022-11-30T21:00:14.603Z,7.3
2022-11-30T21:14:44.500Z,7.3
2022-11-30T21:29:15.081Z,7.2
2022-11-30T21:43:46.162Z,7.3
2022-11-30T21:58:17.540Z,7.2
2022-11-30T22:12:49.104Z,7.1
2022-11-30T22:27:20.311Z,7.1
2022-11-30T22:41:54.989Z,7.2
2022-11-30T22:56:23.822Z,7.2
2022-11-30T23:10:54.953Z,7.1
2022-11-30T23:25:26.250Z,7.2
2022-11-30T23:39:57.905Z,7.2
2022-11-30T23:54:28.455Z,7.2
